createdAt,value
2018-12-27T00:00:36.468Z,30.23
2018-12-27T00:03:24.608Z,36.03
2018-12-27T00:06:05.947Z,36.87
2018-12-27T00:08:53.731Z,37.57
2018-12-27T00:11:34.155Z,35.57
2018-12-27T00:14:22.623Z,37.40
2018-12-27T00:17:05.439Z,34.07
2018-12-27T00:19:53.467Z,38.07
2018-12-27T00:22:34.622Z,36.37
2018-12-27T00:25:22.856Z,33.57
2018-12-27T00:28:04.095Z,35.73
2018-12-27T00:30:52.121Z,38.20
2018-12-27T00:33:32.933Z,37.50
2018-12-27T00:36:20.895Z,35.50
2018-12-27T00:39:04.601Z,35.13
2018-12-27T00:41:53.028Z,33.83
2018-12-27T00:44:34.626Z,36.73
2018-12-27T00:47:22.537Z,35.33
2018-12-27T00:50:03.287Z,40.10
2018-12-27T00:52:32.242Z,37.73
2018-12-27T00:55:13.318Z,40.10
2018-12-27T00:58:02.839Z,46.13
2018-12-27T01:00:43.675Z,41.17
2018-12-27T01:03:31.768Z,44.37
2018-12-27T01:06:13.073Z,47.07
2018-12-27T01:09:01.716Z,46.93
2018-12-27T01:11:43.149Z,44.00
2018-12-27T01:14:31.221Z,48.60
2018-12-27T01:17:12.173Z,49.90
2018-12-27T01:20:00.263Z,44.20
2018-12-27T01:22:41.048Z,40.47
2018-12-27T01:25:29.432Z,43.23
2018-12-27T01:28:10.110Z,51.97
2018-12-27T01:30:58.020Z,48.07
2018-12-27T01:33:39.112Z,43.80
2018-12-27T01:36:08.247Z,41.10
2018-12-27T01:38:49.242Z,44.17
2018-12-27T01:41:37.162Z,46.70
2018-12-27T01:44:18.395Z,40.87
2018-12-27T01:47:06.376Z,42.43
2018-12-27T01:49:47.555Z,46.93
2018-12-27T01:52:35.701Z,47.17
2018-12-27T01:55:16.554Z,38.53
2018-12-27T01:58:04.600Z,42.60
2018-12-27T02:00:45.824Z,37.97
2018-12-27T02:03:33.821Z,42.87
2018-12-27T02:06:14.489Z,39.53
2018-12-27T02:09:02.640Z,42.37
2018-12-27T02:11:43.803Z,43.57
2018-12-27T02:14:25.154Z,44.33
2018-12-27T02:17:12.929Z,47.90
2018-12-27T02:19:53.847Z,49.43
2018-12-27T02:22:41.811Z,45.40
2018-12-27T02:25:23.232Z,44.77
2018-12-27T02:28:11.219Z,49.07
2018-12-27T02:30:52.763Z,49.30
2018-12-27T02:33:40.723Z,44.77
2018-12-27T02:36:21.617Z,48.43
2018-12-27T02:39:09.488Z,46.10
2018-12-27T02:41:50.672Z,46.30
2018-12-27T02:44:38.651Z,46.93
2018-12-27T02:47:19.591Z,48.17
2018-12-27T02:50:07.962Z,45.77
2018-12-27T02:52:48.671Z,45.80
2018-12-27T02:55:29.479Z,45.93
2018-12-27T02:58:17.233Z,50.23
2018-12-27T03:00:58.655Z,52.47
2018-12-27T03:03:46.751Z,51.10
2018-12-27T03:06:27.568Z,48.10
2018-12-27T03:09:15.560Z,51.47
2018-12-27T03:11:56.655Z,52.93
2018-12-27T03:14:37.803Z,52.43
2018-12-27T03:17:19.033Z,53.90
2018-12-27T03:20:07.013Z,55.27
2018-12-27T03:22:47.845Z,52.90
2018-12-27T03:25:35.758Z,57.57
2018-12-27T03:28:17.981Z,52.30
2018-12-27T03:31:05.950Z,54.30
2018-12-27T03:33:52.636Z,56.57
2018-12-27T03:36:36.647Z,58.50
2018-12-27T03:39:17.910Z,58.97
2018-12-27T03:42:05.801Z,59.90
2018-12-27T03:44:46.874Z,61.57
2018-12-27T03:47:35.018Z,61.20
2018-12-27T03:50:15.931Z,61.40
2018-12-27T03:53:04.185Z,57.70
2018-12-27T03:55:45.105Z,62.57
2018-12-27T03:58:33.235Z,66.07
2018-12-27T04:01:14.484Z,67.17
2018-12-27T04:04:02.252Z,64.87
2018-12-27T04:06:43.442Z,64.83
2018-12-27T04:09:33.154Z,63.03
2018-12-27T04:12:14.431Z,66.37
2018-12-27T04:15:05.057Z,61.87
2018-12-27T04:17:46.426Z,65.03
2018-12-27T04:20:34.461Z,67.27
2018-12-27T04:23:15.711Z,69.83
2018-12-27T04:26:03.584Z,73.03
2018-12-27T04:28:44.435Z,63.57
2018-12-27T04:35:01.004Z,72.57
2018-12-27T04:37:42.102Z,68.00
2018-12-27T04:40:24.376Z,73.47
2018-12-27T04:46:04.265Z,71.60
2018-12-27T04:48:45.359Z,70.87
2018-12-27T04:51:26.136Z,67.37
2018-12-27T04:54:14.120Z,70.40
2018-12-27T04:56:55.152Z,73.40
2018-12-27T04:59:43.219Z,68.17
2018-12-27T05:02:26.121Z,65.00
2018-12-27T05:05:14.348Z,67.53
2018-12-27T05:07:54.980Z,71.67
2018-12-27T05:10:42.959Z,74.60
2018-12-27T05:13:24.490Z,71.57
2018-12-27T05:16:05.489Z,67.87
2018-12-27T05:18:46.545Z,76.80
2018-12-27T05:21:34.505Z,71.93
2018-12-27T05:24:27.809Z,66.83
2018-12-27T05:27:15.849Z,69.70
2018-12-27T05:29:57.373Z,74.50
2018-12-27T05:32:45.681Z,70.20
2018-12-27T05:35:27.041Z,72.67
2018-12-27T05:38:15.098Z,75.37
2018-12-27T05:40:56.164Z,71.00
2018-12-27T05:43:44.061Z,76.47
2018-12-27T05:46:26.818Z,71.10
2018-12-27T05:49:15.091Z,63.87
2018-12-27T05:51:55.627Z,76.30
2018-12-27T05:54:43.529Z,66.77
2018-12-27T05:57:24.870Z,71.10
2018-12-27T06:00:12.846Z,73.03
2018-12-27T06:02:54.069Z,64.40
2018-12-27T06:05:42.164Z,74.67
2018-12-27T06:08:23.130Z,74.23
2018-12-27T06:11:11.438Z,74.53
2018-12-27T06:13:39.999Z,69.83
2018-12-27T06:16:22.978Z,69.63
2018-12-27T06:19:03.622Z,71.07
2018-12-27T06:21:51.724Z,65.80
2018-12-27T06:24:32.962Z,67.53
2018-12-27T06:30:28.161Z,70.40
2018-12-27T06:33:16.123Z,73.47
2018-12-27T06:35:57.290Z,65.90
2018-12-27T06:38:45.327Z,65.53
2018-12-27T06:41:26.479Z,66.40
2018-12-27T06:44:14.741Z,63.33
2018-12-27T06:46:57.056Z,71.70
2018-12-27T06:49:45.008Z,63.87
2018-12-27T06:52:13.605Z,68.47
2018-12-27T06:55:01.923Z,66.50
2018-12-27T06:57:42.592Z,70.07
2018-12-27T07:00:30.459Z,72.87
2018-12-27T07:03:11.662Z,71.73
2018-12-27T07:05:59.744Z,72.17
2018-12-27T07:08:41.313Z,64.97
2018-12-27T07:11:29.206Z,66.60
2018-12-27T07:14:10.087Z,70.23
2018-12-27T07:16:50.915Z,67.60
2018-12-27T07:19:32.522Z,67.37
2018-12-27T07:22:20.511Z,64.33
2018-12-27T07:25:01.021Z,73.93
2018-12-27T07:27:49.056Z,67.33
2018-12-27T07:30:32.034Z,59.67
2018-12-27T07:33:20.518Z,63.37
2018-12-27T07:36:01.740Z,64.03
2018-12-27T07:38:49.744Z,68.80
2018-12-27T07:41:30.660Z,66.63
2018-12-27T07:44:18.522Z,65.73
2018-12-27T07:46:59.824Z,65.70
2018-12-27T07:49:48.013Z,62.37
2018-12-27T07:52:29.525Z,64.73
2018-12-27T07:55:17.286Z,62.87
2018-12-27T07:57:58.452Z,62.50
2018-12-27T08:00:46.932Z,58.83
2018-12-27T08:03:27.567Z,59.93
2018-12-27T08:06:15.633Z,60.97
2018-12-27T08:08:56.858Z,65.50
2018-12-27T08:11:45.341Z,56.90
2018-12-27T08:14:26.270Z,60.57
2018-12-27T08:17:07.052Z,65.10
2018-12-27T08:19:47.872Z,64.17
2018-12-27T08:22:35.905Z,68.53
2018-12-27T08:25:16.375Z,66.53
2018-12-27T08:28:04.277Z,68.20
2018-12-27T08:30:45.671Z,60.30
2018-12-27T08:33:33.760Z,61.73
2018-12-27T08:36:14.833Z,64.10
2018-12-27T08:39:14.884Z,62.20
2018-12-27T08:42:03.147Z,62.50
2018-12-27T08:44:43.856Z,58.63
2018-12-27T08:47:31.716Z,56.73
2018-12-27T08:50:15.177Z,59.00
2018-12-27T08:53:17.430Z,61.00
2018-12-27T08:55:52.223Z,62.27
2018-12-27T08:58:33.425Z,60.47
2018-12-27T09:01:14.515Z,58.47
2018-12-27T09:04:02.421Z,60.63
2018-12-27T09:06:43.810Z,55.93
2018-12-27T09:09:32.044Z,58.77
2018-12-27T09:12:12.864Z,59.50
2018-12-27T09:15:01.119Z,60.17
2018-12-27T09:17:42.432Z,57.07
2018-12-27T09:20:30.257Z,52.13
2018-12-27T09:22:58.772Z,51.60
2018-12-27T09:25:46.638Z,56.23
2018-12-27T09:28:27.242Z,57.97
2018-12-27T09:31:15.268Z,59.73
2018-12-27T09:33:56.390Z,54.00
2018-12-27T09:36:44.206Z,57.20
2018-12-27T09:39:25.543Z,57.50
2018-12-27T09:42:13.655Z,60.87
2018-12-27T09:44:54.826Z,60.97
2018-12-27T09:47:42.924Z,61.60
2018-12-27T09:50:11.510Z,60.63
2018-12-27T09:52:59.557Z,59.47
2018-12-27T09:55:40.512Z,56.47
2018-12-27T09:58:28.550Z,59.73
2018-12-27T10:01:09.532Z,62.57
2018-12-27T10:03:57.459Z,64.40
2018-12-27T10:06:38.825Z,60.60
2018-12-27T10:09:26.737Z,56.83
2018-12-27T10:12:08.101Z,60.07
2018-12-27T10:14:56.150Z,59.50
2018-12-27T10:17:39.592Z,62.27
2018-12-27T10:20:27.448Z,60.83
2018-12-27T10:23:08.435Z,59.97
2018-12-27T10:25:56.440Z,58.80
2018-12-27T10:28:37.906Z,61.33
2018-12-27T10:31:26.120Z,57.60
2018-12-27T10:34:07.311Z,61.33
2018-12-27T10:36:35.818Z,55.53
2018-12-27T10:39:16.788Z,55.33
2018-12-27T10:42:04.891Z,56.97
2018-12-27T10:44:45.747Z,57.23
2018-12-27T10:47:33.685Z,55.77
2018-12-27T10:50:14.896Z,58.40
2018-12-27T10:52:43.540Z,63.93
2018-12-27T10:55:26.312Z,56.97
2018-12-27T10:58:14.357Z,59.30
2018-12-27T11:00:55.673Z,57.97
2018-12-27T11:03:43.928Z,54.60
2018-12-27T11:06:12.452Z,57.77
2018-12-27T11:09:00.362Z,58.00
2018-12-27T11:11:41.522Z,62.70
2018-12-27T11:14:29.470Z,62.13
2018-12-27T11:17:10.662Z,58.20
2018-12-27T11:19:58.655Z,52.97
2018-12-27T11:22:39.782Z,59.50
2018-12-27T11:25:27.667Z,56.70
2018-12-27T11:28:09.186Z,56.27
2018-12-27T11:30:58.108Z,58.80
2018-12-27T11:33:59.353Z,55.17
2018-12-27T11:36:47.918Z,54.30
2018-12-27T11:39:36.152Z,58.93
2018-12-27T11:42:04.695Z,49.63
2018-12-27T11:44:45.636Z,54.27
2018-12-27T11:47:33.606Z,54.40
2018-12-27T11:50:02.114Z,50.93
2018-12-27T11:52:50.110Z,52.27
2018-12-27T11:55:31.506Z,52.07
2018-12-27T11:58:19.429Z,49.70
2018-12-27T12:01:01.068Z,56.43
2018-12-27T12:03:41.618Z,47.97
2018-12-27T12:06:22.719Z,52.87
2018-12-27T12:09:10.678Z,51.73
2018-12-27T12:11:51.782Z,55.53
2018-12-27T12:14:39.836Z,50.80
2018-12-27T12:17:21.092Z,52.03
2018-12-27T12:20:09.065Z,51.87
2018-12-27T12:22:50.146Z,51.70
2018-12-27T12:25:37.976Z,52.57
2018-12-27T12:28:20.881Z,49.53
2018-12-27T12:31:09.116Z,52.33
2018-12-27T12:33:50.564Z,56.17
2018-12-27T12:36:38.901Z,56.03
2018-12-27T12:39:19.790Z,51.83
2018-12-27T12:41:48.253Z,52.70
2018-12-27T12:44:29.597Z,49.50
2018-12-27T12:47:18.477Z,52.50
2018-12-27T12:49:59.944Z,50.47
2018-12-27T12:52:47.990Z,55.40
2018-12-27T12:55:30.707Z,48.50
2018-12-27T12:58:18.528Z,49.20
2018-12-27T13:00:47.083Z,51.70
2018-12-27T13:03:34.965Z,51.77
2018-12-27T13:06:18.050Z,47.30
2018-12-27T13:09:06.776Z,50.13
2018-12-27T13:11:48.039Z,52.23
2018-12-27T13:14:36.643Z,48.93
2018-12-27T13:17:17.583Z,47.37
2018-12-27T13:20:05.705Z,45.17
2018-12-27T13:22:46.767Z,49.17
2018-12-27T13:25:34.629Z,56.93
2018-12-27T13:28:16.157Z,49.87
2018-12-27T13:31:04.066Z,46.93
2018-12-27T13:33:44.842Z,49.27
2018-12-27T13:36:32.813Z,44.90
2018-12-27T13:39:14.079Z,42.80
2018-12-27T13:42:02.009Z,44.40
2018-12-27T13:44:43.435Z,40.60
2018-12-27T13:47:31.761Z,41.43
2018-12-27T13:50:14.752Z,41.07
2018-12-27T13:53:03.286Z,37.47
2018-12-27T13:55:44.512Z,44.87
2018-12-27T13:58:32.750Z,44.40
2018-12-27T14:01:13.878Z,45.30
2018-12-27T14:04:01.825Z,38.87
2018-12-27T14:06:43.727Z,38.83
2018-12-27T14:09:31.655Z,37.00
2018-12-27T14:12:12.324Z,36.20
2018-12-27T14:15:00.239Z,41.30
2018-12-27T14:17:41.607Z,43.87
2018-12-27T14:20:29.660Z,41.47
2018-12-27T14:23:10.267Z,37.93
2018-12-27T14:25:59.362Z,39.77
2018-12-27T14:28:40.473Z,43.20
2018-12-27T14:31:28.480Z,43.37
2018-12-27T14:34:10.393Z,40.83
2018-12-27T14:37:00.356Z,40.13
2018-12-27T14:39:41.160Z,39.40
2018-12-27T14:42:29.561Z,47.33
2018-12-27T14:45:10.674Z,45.10
2018-12-27T14:47:58.745Z,38.40
2018-12-27T14:50:39.651Z,39.70
2018-12-27T14:53:27.527Z,40.80
2018-12-27T14:56:09.019Z,40.07
2018-12-27T14:58:57.070Z,43.80
2018-12-27T15:01:37.510Z,40.30
2018-12-27T15:04:25.278Z,42.63
2018-12-27T15:07:06.717Z,39.77
2018-12-27T15:09:57.460Z,41.77
2018-12-27T15:12:46.383Z,41.47
2018-12-27T15:15:38.524Z,40.23
2018-12-27T15:18:19.722Z,42.27
2018-12-27T15:21:07.601Z,41.83
2018-12-27T15:23:48.973Z,44.10
2018-12-27T15:26:36.955Z,47.77
2018-12-27T15:29:17.842Z,45.70
2018-12-27T15:32:05.511Z,42.37
2018-12-27T15:34:46.980Z,44.30
2018-12-27T15:37:35.461Z,44.47
2018-12-27T15:40:16.201Z,42.23
2018-12-27T15:43:04.101Z,41.47
2018-12-27T15:45:45.169Z,44.57
2018-12-27T15:48:33.105Z,46.47
2018-12-27T15:51:16.381Z,44.80
2018-12-27T15:54:04.311Z,45.37
2018-12-27T15:56:46.101Z,48.13
2018-12-27T15:59:26.669Z,47.07
2018-12-27T16:02:07.995Z,45.37
2018-12-27T16:04:55.901Z,47.30
2018-12-27T16:07:37.386Z,50.57
2018-12-27T16:10:25.677Z,47.37
2018-12-27T16:13:06.414Z,51.03
2018-12-27T16:15:54.393Z,49.50
2018-12-27T16:18:35.672Z,55.93
2018-12-27T16:21:23.633Z,51.77
2018-12-27T16:24:04.743Z,51.53
2018-12-27T16:26:52.884Z,54.03
2018-12-27T16:29:36.492Z,53.97
2018-12-27T16:32:24.349Z,53.03
2018-12-27T16:35:07.275Z,55.17
2018-12-27T16:37:55.315Z,54.20
2018-12-27T16:40:37.374Z,50.20
2018-12-27T16:43:25.367Z,54.80
2018-12-27T16:46:07.147Z,51.23
2018-12-27T16:48:55.512Z,48.33
2018-12-27T16:51:37.773Z,51.50
2018-12-27T16:54:25.790Z,56.90
2018-12-27T16:56:54.942Z,56.07
2018-12-27T16:59:36.622Z,51.43
2018-12-27T17:02:05.358Z,52.93
2018-12-27T17:04:53.320Z,50.70
2018-12-27T17:07:33.782Z,49.30
2018-12-27T17:10:21.700Z,52.03
2018-12-27T17:13:03.043Z,47.70
2018-12-27T17:15:51.407Z,47.53
2018-12-27T17:18:34.243Z,51.33
2018-12-27T17:21:22.510Z,55.47
2018-12-27T17:24:03.877Z,48.80
2018-12-27T17:26:52.037Z,49.03
2018-12-27T17:29:32.860Z,52.33
2018-12-27T17:32:21.026Z,53.47
2018-12-27T17:35:02.024Z,49.77
2018-12-27T17:37:49.900Z,53.67
2018-12-27T17:40:31.267Z,52.90
2018-12-27T17:43:19.214Z,49.23
2018-12-27T17:46:00.132Z,53.70
2018-12-27T17:48:48.000Z,47.53
2018-12-27T17:51:29.223Z,52.60
2018-12-27T17:54:17.215Z,51.17
2018-12-27T17:56:58.390Z,54.53
2018-12-27T17:59:39.460Z,51.87
2018-12-27T18:02:21.409Z,56.30
2018-12-27T18:05:10.310Z,53.40
2018-12-27T18:07:51.707Z,55.53
2018-12-27T18:10:39.832Z,52.87
2018-12-27T18:13:20.856Z,60.13
2018-12-27T18:16:09.009Z,56.47
2018-12-27T18:18:49.858Z,59.47
2018-12-27T18:21:37.716Z,58.37
2018-12-27T18:24:19.778Z,57.53
2018-12-27T18:27:07.935Z,56.43
2018-12-27T18:29:49.302Z,57.43
2018-12-27T18:32:37.184Z,58.73
2018-12-27T18:35:18.305Z,57.57
2018-12-27T18:38:06.350Z,55.20
2018-12-27T18:40:47.518Z,62.27
2018-12-27T18:43:35.439Z,57.47
2018-12-27T18:46:16.909Z,54.47
2018-12-27T18:49:04.932Z,57.17
2018-12-27T18:54:56.722Z,57.63
2018-12-27T18:57:44.695Z,58.40
2018-12-27T19:00:26.532Z,60.10
2018-12-27T19:02:55.164Z,63.00
2018-12-27T19:05:43.156Z,62.10
2018-12-27T19:08:23.726Z,64.70
2018-12-27T19:11:50.614Z,62.87
2018-12-27T19:14:32.274Z,60.20
2018-12-27T19:17:02.521Z,63.30
2018-12-27T19:19:31.641Z,71.17
2018-12-27T19:22:37.520Z,63.37
2018-12-27T19:25:18.731Z,69.33
2018-12-27T19:28:06.713Z,68.03
2018-12-27T19:30:47.657Z,62.47
2018-12-27T19:33:35.746Z,61.27
2018-12-27T19:36:17.487Z,68.77
2018-12-27T19:39:06.006Z,70.80
2018-12-27T19:41:47.546Z,64.50
2018-12-27T19:44:36.369Z,67.67
2018-12-27T19:47:18.696Z,69.13
2018-12-27T19:50:06.863Z,71.67
2018-12-27T19:52:47.795Z,64.50
2018-12-27T19:55:36.067Z,66.03
2018-12-27T19:58:17.169Z,63.87
2018-12-27T20:00:59.230Z,67.77
2018-12-27T20:03:39.730Z,64.53
2018-12-27T20:06:27.871Z,60.30
2018-12-27T20:09:08.965Z,66.60
2018-12-27T20:11:38.025Z,65.40
2018-12-27T20:14:19.062Z,63.80
2018-12-27T20:17:07.358Z,64.10
2018-12-27T20:19:48.527Z,62.83
2018-12-27T20:22:36.717Z,63.30
2018-12-27T20:25:17.789Z,64.73
2018-12-27T20:28:06.283Z,63.93
2018-12-27T20:30:47.053Z,67.20
2018-12-27T20:33:35.080Z,62.50
2018-12-27T20:36:16.342Z,63.10
2018-12-27T20:38:44.974Z,60.03
2018-12-27T20:41:25.896Z,63.97
2018-12-27T20:44:14.092Z,60.13
2018-12-27T20:46:55.130Z,61.90
2018-12-27T20:49:43.198Z,63.50
2018-12-27T20:52:24.325Z,60.37
2018-12-27T20:55:12.326Z,59.60
2018-12-27T20:57:53.377Z,57.10
2018-12-27T21:00:34.633Z,51.90
2018-12-27T21:03:15.846Z,52.67
2018-12-27T21:05:56.922Z,52.37
2018-12-27T21:08:44.795Z,58.43
2018-12-27T21:11:25.920Z,50.60
2018-12-27T21:13:54.443Z,51.77
2018-12-27T21:16:34.890Z,52.67
2018-12-27T21:19:22.875Z,53.33
2018-12-27T21:22:04.017Z,51.13
2018-12-27T21:24:51.914Z,44.40
2018-12-27T21:27:32.432Z,50.07
2018-12-27T21:30:20.344Z,47.07
2018-12-27T21:32:59.259Z,49.10
2018-12-27T21:35:47.235Z,46.03
2018-12-27T21:38:27.719Z,49.03
2018-12-27T21:41:15.523Z,45.87
2018-12-27T21:43:56.816Z,45.10
2018-12-27T21:46:44.877Z,47.80
2018-12-27T21:49:26.223Z,47.23
2018-12-27T21:52:14.512Z,41.80
2018-12-27T21:54:55.725Z,44.70
2018-12-27T21:57:43.579Z,46.03
2018-12-27T22:00:24.697Z,42.43
2018-12-27T22:03:12.683Z,48.93
2018-12-27T22:05:54.022Z,44.93
2018-12-27T22:08:41.902Z,42.43
2018-12-27T22:11:23.008Z,45.33
2018-12-27T22:14:10.810Z,42.30
2018-12-27T22:16:54.110Z,46.80
2018-12-27T22:19:42.046Z,44.53
2018-12-27T22:22:23.525Z,38.63
2018-12-27T22:25:11.365Z,41.73
2018-12-27T22:27:52.698Z,41.37
2018-12-27T22:30:40.547Z,43.30
2018-12-27T22:33:22.003Z,36.83
2018-12-27T22:36:10.063Z,44.53
2018-12-27T22:38:51.577Z,39.80
2018-12-27T22:41:39.577Z,46.23
2018-12-27T22:44:20.479Z,40.73
2018-12-27T22:47:08.402Z,42.43
2018-12-27T22:49:49.916Z,35.77
2018-12-27T22:52:37.840Z,41.47
2018-12-27T22:55:18.715Z,38.10
2018-12-27T22:58:06.531Z,41.60
2018-12-27T23:00:47.997Z,39.40
2018-12-27T23:03:35.955Z,42.67
2018-12-27T23:06:16.862Z,39.97
2018-12-27T23:09:26.766Z,36.23
2018-12-27T23:12:07.992Z,42.90
2018-12-27T23:14:55.955Z,38.93
2018-12-27T23:17:36.849Z,40.00
2018-12-27T23:20:24.972Z,44.27
2018-12-27T23:23:06.216Z,39.63
2018-12-27T23:25:54.296Z,36.30
2018-12-27T23:28:35.104Z,39.50
2018-12-27T23:31:22.961Z,43.67
2018-12-27T23:34:04.303Z,38.57
2018-12-27T23:36:52.264Z,40.57
2018-12-27T23:39:32.731Z,33.30
2018-12-27T23:42:21.366Z,36.77
2018-12-27T23:45:01.880Z,36.07
2018-12-27T23:47:49.858Z,35.43
2018-12-27T23:50:31.316Z,37.07
2018-12-27T23:53:19.295Z,37.83
2018-12-27T23:56:00.374Z,33.80
2018-12-27T23:58:48.786Z,35.17
